sensor_id;sensor_type;location;lat;lon;timestamp;P1;durP1;ratioP1;P2;durP2;ratioP2
14139;SDS011;7150;53.514;9.988;2024-03-23T00:53:43;13.50;;;3.80;;
14139;SDS011;7150;53.514;9.988;2024-03-23T00:56:09;15.47;;;3.37;;
14139;SDS011;7150;53.514;9.988;2024-03-23T00:58:35;12.43;;;3.00;;
14139;SDS011;7150;53.514;9.988;2024-03-23T01:01:00;17.07;;;3.30;;
14139;SDS011;7150;53.514;9.988;2024-03-23T01:03:28;17.60;;;4.57;;
14139;SDS011;7150;53.514;9.988;2024-03-23T01:05:54;15.20;;;3.13;;
14139;SDS011;7150;53.514;9.988;2024-03-23T01:08:19;12.77;;;4.10;;
14139;SDS011;7150;53.514;9.988;2024-03-23T01:11:01;15.60;;;3.43;;
14139;SDS011;7150;53.514;9.988;2024-03-23T01:13:27;11.00;;;3.37;;
14139;SDS011;7150;53.514;9.988;2024-03-23T01:15:54;14.90;;;3.57;;
14139;SDS011;7150;53.514;9.988;2024-03-23T01:18:20;15.27;;;4.27;;
14139;SDS011;7150;53.514;9.988;2024-03-23T01:20:47;14.73;;;3.63;;
14139;SDS011;7150;53.514;9.988;2024-03-23T01:23:12;9.90;;;2.97;;
14139;SDS011;7150;53.514;9.988;2024-03-23T01:25:38;11.83;;;3.30;;
14139;SDS011;7150;53.514;9.988;2024-03-23T01:28:04;9.97;;;3.07;;
14139;SDS011;7150;53.514;9.988;2024-03-23T01:30:31;16.73;;;4.37;;
14139;SDS011;7150;53.514;9.988;2024-03-23T01:32:57;18.23;;;3.77;;
14139;SDS011;7150;53.514;9.988;2024-03-23T01:35:22;12.77;;;3.10;;
14139;SDS011;7150;53.514;9.988;2024-03-23T01:37:48;12.73;;;3.20;;
14139;SDS011;7150;53.514;9.988;2024-03-23T01:40:13;15.10;;;3.90;;
14139;SDS011;7150;53.514;9.988;2024-03-23T01:42:41;15.47;;;3.77;;
14139;SDS011;7150;53.514;9.988;2024-03-23T01:45:07;7.47;;;3.70;;
14139;SDS011;7150;53.514;9.988;2024-03-23T01:47:33;13.80;;;3.60;;
14139;SDS011;7150;53.514;9.988;2024-03-23T01:49:59;14.93;;;2.97;;
14139;SDS011;7150;53.514;9.988;2024-03-23T01:52:25;7.50;;;3.07;;
14139;SDS011;7150;53.514;9.988;2024-03-23T01:54:52;11.80;;;3.47;;
14139;SDS011;7150;53.514;9.988;2024-03-23T01:57:18;7.13;;;2.63;;
14139;SDS011;7150;53.514;9.988;2024-03-23T01:59:45;10.37;;;3.07;;
14139;SDS011;7150;53.514;9.988;2024-03-23T02:02:11;13.40;;;3.07;;
14139;SDS011;7150;53.514;9.988;2024-03-23T02:04:37;16.13;;;3.43;;
14139;SDS011;7150;53.514;9.988;2024-03-23T02:07:02;11.47;;;3.63;;
14139;SDS011;7150;53.514;9.988;2024-03-23T02:09:30;11.00;;;2.93;;
14139;SDS011;7150;53.514;9.988;2024-03-23T02:11:56;10.83;;;2.97;;
14139;SDS011;7150;53.514;9.988;2024-03-23T02:14:22;19.33;;;3.83;;
14139;SDS011;7150;53.514;9.988;2024-03-23T02:16:47;8.87;;;3.03;;
14139;SDS011;7150;53.514;9.988;2024-03-23T02:19:13;17.67;;;4.23;;
14139;SDS011;7150;53.514;9.988;2024-03-23T02:21:38;14.50;;;3.77;;
14139;SDS011;7150;53.514;9.988;2024-03-23T02:24:04;9.07;;;3.17;;
14139;SDS011;7150;53.514;9.988;2024-03-23T02:26:29;14.73;;;3.63;;
14139;SDS011;7150;53.514;9.988;2024-03-23T02:28:55;13.30;;;3.63;;
14139;SDS011;7150;53.514;9.988;2024-03-23T02:31:20;11.37;;;2.93;;
14139;SDS011;7150;53.514;9.988;2024-03-23T02:33:46;13.07;;;3.63;;
14139;SDS011;7150;53.514;9.988;2024-03-23T02:36:11;17.47;;;4.03;;
14139;SDS011;7150;53.514;9.988;2024-03-23T02:38:37;11.80;;;3.13;;
14139;SDS011;7150;53.514;9.988;2024-03-23T02:41:03;14.60;;;3.90;;
14139;SDS011;7150;53.514;9.988;2024-03-23T02:43:29;13.17;;;3.73;;
14139;SDS011;7150;53.514;9.988;2024-03-23T02:45:54;14.77;;;3.23;;
14139;SDS011;7150;53.514;9.988;2024-03-23T02:48:20;14.50;;;4.17;;
14139;SDS011;7150;53.514;9.988;2024-03-23T02:50:45;11.97;;;3.63;;
14139;SDS011;7150;53.514;9.988;2024-03-23T02:53:11;12.83;;;4.00;;
14139;SDS011;7150;53.514;9.988;2024-03-23T02:55:36;13.80;;;3.40;;
14139;SDS011;7150;53.514;9.988;2024-03-23T02:58:02;16.10;;;3.87;;
14139;SDS011;7150;53.514;9.988;2024-03-23T03:00:28;9.90;;;3.20;;
14139;SDS011;7150;53.514;9.988;2024-03-23T03:02:54;13.30;;;3.07;;
14139;SDS011;7150;53.514;9.988;2024-03-23T03:05:19;14.60;;;4.03;;
14139;SDS011;7150;53.514;9.988;2024-03-23T03:07:45;11.20;;;3.00;;
14139;SDS011;7150;53.514;9.988;2024-03-23T03:10:10;11.23;;;3.47;;
14139;SDS011;7150;53.514;9.988;2024-03-23T03:12:36;8.90;;;2.73;;
14139;SDS011;7150;53.514;9.988;2024-03-23T03:15:02;9.63;;;3.00;;
14139;SDS011;7150;53.514;9.988;2024-03-23T03:17:29;11.60;;;2.63;;
14139;SDS011;7150;53.514;9.988;2024-03-23T03:19:55;9.20;;;2.30;;
14139;SDS011;7150;53.514;9.988;2024-03-23T03:22:21;13.17;;;3.43;;
14139;SDS011;7150;53.514;9.988;2024-03-23T03:24:47;11.07;;;2.87;;
14139;SDS011;7150;53.514;9.988;2024-03-23T03:27:12;11.63;;;3.30;;
14139;SDS011;7150;53.514;9.988;2024-03-23T03:29:38;10.77;;;3.33;;
14139;SDS011;7150;53.514;9.988;2024-03-23T03:32:04;15.93;;;3.47;;
14139;SDS011;7150;53.514;9.988;2024-03-23T03:34:29;12.57;;;2.77;;
14139;SDS011;7150;53.514;9.988;2024-03-23T03:36:56;14.23;;;3.43;;
14139;SDS011;7150;53.514;9.988;2024-03-23T03:39:21;12.57;;;2.93;;
14139;SDS011;7150;53.514;9.988;2024-03-23T03:41:47;17.03;;;3.73;;
14139;SDS011;7150;53.514;9.988;2024-03-23T03:44:13;12.77;;;3.17;;
14139;SDS011;7150;53.514;9.988;2024-03-23T03:46:39;12.03;;;3.00;;
14139;SDS011;7150;53.514;9.988;2024-03-23T03:49:04;11.57;;;2.93;;
14139;SDS011;7150;53.514;9.988;2024-03-23T03:51:30;15.03;;;3.13;;
14139;SDS011;7150;53.514;9.988;2024-03-23T03:53:56;11.57;;;3.13;;
14139;SDS011;7150;53.514;9.988;2024-03-23T03:56:21;12.50;;;2.90;;
14139;SDS011;7150;53.514;9.988;2024-03-23T03:58:47;15.80;;;3.30;;
14139;SDS011;7150;53.514;9.988;2024-03-23T04:01:13;11.47;;;3.33;;
14139;SDS011;7150;53.514;9.988;2024-03-23T04:03:38;14.27;;;3.30;;
14139;SDS011;7150;53.514;9.988;2024-03-23T04:06:08;14.93;;;2.90;;
14139;SDS011;7150;53.514;9.988;2024-03-23T04:08:37;12.53;;;3.17;;
14139;SDS011;7150;53.514;9.988;2024-03-23T04:11:02;12.57;;;3.50;;
14139;SDS011;7150;53.514;9.988;2024-03-23T04:13:28;11.03;;;3.33;;
14139;SDS011;7150;53.514;9.988;2024-03-23T04:15:56;11.83;;;2.97;;
14139;SDS011;7150;53.514;9.988;2024-03-23T04:18:22;15.30;;;4.03;;
14139;SDS011;7150;53.514;9.988;2024-03-23T04:20:49;12.47;;;3.20;;
14139;SDS011;7150;53.514;9.988;2024-03-23T04:23:14;14.90;;;3.80;;
14139;SDS011;7150;53.514;9.988;2024-03-23T04:25:40;8.30;;;2.73;;
14139;SDS011;7150;53.514;9.988;2024-03-23T04:28:05;12.40;;;3.83;;
14139;SDS011;7150;53.514;9.988;2024-03-23T04:30:31;15.43;;;3.23;;
14139;SDS011;7150;53.514;9.988;2024-03-23T04:32:57;14.83;;;3.47;;
14139;SDS011;7150;53.514;9.988;2024-03-23T04:35:23;10.60;;;3.17;;
14139;SDS011;7150;53.514;9.988;2024-03-23T04:37:52;10.57;;;2.97;;
14139;SDS011;7150;53.514;9.988;2024-03-23T04:40:18;13.60;;;2.83;;
14139;SDS011;7150;53.514;9.988;2024-03-23T04:42:44;15.63;;;3.67;;
14139;SDS011;7150;53.514;9.988;2024-03-23T04:45:09;9.57;;;2.60;;
14139;SDS011;7150;53.514;9.988;2024-03-23T04:47:35;20.23;;;3.77;;
14139;SDS011;7150;53.514;9.988;2024-03-23T04:50:02;16.77;;;3.90;;
14139;SDS011;7150;53.514;9.988;2024-03-23T04:52:28;15.83;;;3.83;;
14139;SDS011;7150;53.514;9.988;2024-03-23T04:54:54;16.30;;;2.90;;
14139;SDS011;7150;53.514;9.988;2024-03-23T04:57:19;10.77;;;2.70;;
14139;SDS011;7150;53.514;9.988;2024-03-23T04:59:45;16.20;;;3.27;;
14139;SDS011;7150;53.514;9.988;2024-03-23T05:02:10;20.20;;;3.60;;
14139;SDS011;7150;53.514;9.988;2024-03-23T05:04:36;11.87;;;3.30;;
14139;SDS011;7150;53.514;9.988;2024-03-23T05:07:02;12.00;;;3.50;;
14139;SDS011;7150;53.514;9.988;2024-03-23T05:09:28;11.13;;;3.10;;
14139;SDS011;7150;53.514;9.988;2024-03-23T05:11:55;10.73;;;3.07;;
14139;SDS011;7150;53.514;9.988;2024-03-23T05:14:21;15.27;;;3.40;;
14139;SDS011;7150;53.514;9.988;2024-03-23T05:16:47;12.00;;;3.10;;
14139;SDS011;7150;53.514;9.988;2024-03-23T05:19:12;13.23;;;3.37;;
14139;SDS011;7150;53.514;9.988;2024-03-23T05:21:37;9.63;;;2.70;;
14139;SDS011;7150;53.514;9.988;2024-03-23T05:24:03;11.43;;;2.90;;
14139;SDS011;7150;53.514;9.988;2024-03-23T05:26:29;17.40;;;3.90;;
14139;SDS011;7150;53.514;9.988;2024-03-23T05:28:54;10.67;;;3.30;;
14139;SDS011;7150;53.514;9.988;2024-03-23T05:31:27;9.03;;;2.90;;
14139;SDS011;7150;53.514;9.988;2024-03-23T05:33:53;14.07;;;2.90;;
14139;SDS011;7150;53.514;9.988;2024-03-23T05:36:19;8.40;;;3.00;;
14139;SDS011;7150;53.514;9.988;2024-03-23T05:38:45;8.50;;;2.60;;
14139;SDS011;7150;53.514;9.988;2024-03-23T05:41:10;11.33;;;3.10;;
14139;SDS011;7150;53.514;9.988;2024-03-23T05:43:36;10.60;;;2.83;;
14139;SDS011;7150;53.514;9.988;2024-03-23T05:46:02;7.07;;;2.97;;
14139;SDS011;7150;53.514;9.988;2024-03-23T05:48:27;11.63;;;3.07;;
14139;SDS011;7150;53.514;9.988;2024-03-23T05:50:55;16.93;;;3.73;;
14139;SDS011;7150;53.514;9.988;2024-03-23T05:53:21;16.07;;;3.00;;
14139;SDS011;7150;53.514;9.988;2024-03-23T05:55:46;13.00;;;3.43;;
14139;SDS011;7150;53.514;9.988;2024-03-23T05:58:15;15.17;;;3.57;;
14139;SDS011;7150;53.514;9.988;2024-03-23T06:00:41;16.17;;;2.90;;
14139;SDS011;7150;53.514;9.988;2024-03-23T06:03:07;11.23;;;2.83;;
14139;SDS011;7150;53.514;9.988;2024-03-23T06:05:33;16.07;;;3.47;;
14139;SDS011;7150;53.514;9.988;2024-03-23T06:07:59;13.30;;;3.00;;
14139;SDS011;7150;53.514;9.988;2024-03-23T06:10:25;13.63;;;2.90;;
14139;SDS011;7150;53.514;9.988;2024-03-23T06:12:50;16.50;;;3.67;;
14139;SDS011;7150;53.514;9.988;2024-03-23T06:15:17;17.07;;;3.83;;
14139;SDS011;7150;53.514;9.988;2024-03-23T06:17:44;12.33;;;2.83;;
14139;SDS011;7150;53.514;9.988;2024-03-23T06:20:09;13.23;;;3.73;;
14139;SDS011;7150;53.514;9.988;2024-03-23T06:22:35;22.20;;;3.47;;
14139;SDS011;7150;53.514;9.988;2024-03-23T06:25:01;17.47;;;3.37;;
14139;SDS011;7150;53.514;9.988;2024-03-23T06:27:27;9.07;;;2.50;;
14139;SDS011;7150;53.514;9.988;2024-03-23T06:29:52;11.00;;;3.33;;
14139;SDS011;7150;53.514;9.988;2024-03-23T06:32:18;16.93;;;3.10;;
14139;SDS011;7150;53.514;9.988;2024-03-23T06:34:43;11.17;;;3.03;;
14139;SDS011;7150;53.514;9.988;2024-03-23T06:37:09;12.93;;;3.23;;
14139;SDS011;7150;53.514;9.988;2024-03-23T06:39:35;10.10;;;2.73;;
14139;SDS011;7150;53.514;9.988;2024-03-23T06:42:02;13.37;;;3.33;;
14139;SDS011;7150;53.514;9.988;2024-03-23T06:44:28;12.03;;;3.37;;
14139;SDS011;7150;53.514;9.988;2024-03-23T06:46:54;16.83;;;3.50;;
14139;SDS011;7150;53.514;9.988;2024-03-23T06:49:19;9.93;;;3.60;;
14139;SDS011;7150;53.514;9.988;2024-03-23T06:51:45;13.70;;;3.10;;
14139;SDS011;7150;53.514;9.988;2024-03-23T06:54:11;11.43;;;3.67;;
14139;SDS011;7150;53.514;9.988;2024-03-23T06:56:37;11.40;;;3.10;;
14139;SDS011;7150;53.514;9.988;2024-03-23T06:59:02;13.00;;;4.00;;
14139;SDS011;7150;53.514;9.988;2024-03-23T07:01:28;16.87;;;3.90;;
14139;SDS011;7150;53.514;9.988;2024-03-23T07:03:54;11.13;;;2.57;;
14139;SDS011;7150;53.514;9.988;2024-03-23T07:06:19;11.23;;;3.17;;
14139;SDS011;7150;53.514;9.988;2024-03-23T07:08:45;13.23;;;3.07;;
14139;SDS011;7150;53.514;9.988;2024-03-23T07:11:10;13.17;;;3.53;;
14139;SDS011;7150;53.514;9.988;2024-03-23T07:13:36;12.03;;;3.60;;
14139;SDS011;7150;53.514;9.988;2024-03-23T07:16:01;13.17;;;3.03;;
14139;SDS011;7150;53.514;9.988;2024-03-23T07:18:27;13.93;;;3.63;;
14139;SDS011;7150;53.514;9.988;2024-03-23T07:20:55;10.50;;;2.80;;
14139;SDS011;7150;53.514;9.988;2024-03-23T07:23:21;15.27;;;3.63;;
14139;SDS011;7150;53.514;9.988;2024-03-23T07:25:59;14.53;;;4.13;;
14139;SDS011;7150;53.514;9.988;2024-03-23T07:28:32;12.47;;;3.17;;
14139;SDS011;7150;53.514;9.988;2024-03-23T07:31:05;13.43;;;3.40;;
14139;SDS011;7150;53.514;9.988;2024-03-23T07:33:36;14.77;;;3.93;;
14139;SDS011;7150;53.514;9.988;2024-03-23T07:36:03;14.70;;;4.00;;
14139;SDS011;7150;53.514;9.988;2024-03-23T07:38:29;14.40;;;3.37;;
14139;SDS011;7150;53.514;9.988;2024-03-23T07:41:02;14.13;;;3.17;;
14139;SDS011;7150;53.514;9.988;2024-03-23T07:43:28;17.63;;;4.07;;
14139;SDS011;7150;53.514;9.988;2024-03-23T07:45:54;14.47;;;3.30;;
14139;SDS011;7150;53.514;9.988;2024-03-23T07:48:22;13.40;;;3.00;;
14139;SDS011;7150;53.514;9.988;2024-03-23T07:53:33;15.30;;;3.37;;
14139;SDS011;7150;53.514;9.988;2024-03-23T07:56:00;11.67;;;2.93;;
14139;SDS011;7150;53.514;9.988;2024-03-23T07:58:28;11.07;;;3.13;;
14139;SDS011;7150;53.514;9.988;2024-03-23T08:00:54;11.67;;;2.83;;
14139;SDS011;7150;53.514;9.988;2024-03-23T08:03:20;13.27;;;3.57;;
14139;SDS011;7150;53.514;9.988;2024-03-23T08:05:45;14.57;;;3.70;;
14139;SDS011;7150;53.514;9.988;2024-03-23T08:08:11;12.93;;;3.40;;
14139;SDS011;7150;53.514;9.988;2024-03-23T08:10:37;15.13;;;3.60;;
14139;SDS011;7150;53.514;9.988;2024-03-23T08:13:12;14.10;;;3.60;;
14139;SDS011;7150;53.514;9.988;2024-03-23T08:15:37;12.03;;;3.33;;
14139;SDS011;7150;53.514;9.988;2024-03-23T08:18:03;13.43;;;3.47;;
14139;SDS011;7150;53.514;9.988;2024-03-23T08:20:29;12.83;;;3.20;;
14139;SDS011;7150;53.514;9.988;2024-03-23T08:22:55;9.00;;;2.80;;
14139;SDS011;7150;53.514;9.988;2024-03-23T08:25:20;13.73;;;3.60;;
14139;SDS011;7150;53.514;9.988;2024-03-23T08:27:45;14.67;;;3.17;;
14139;SDS011;7150;53.514;9.988;2024-03-23T08:30:11;18.07;;;3.97;;
14139;SDS011;7150;53.514;9.988;2024-03-23T08:32:37;11.33;;;3.00;;
14139;SDS011;7150;53.514;9.988;2024-03-23T08:35:02;14.63;;;3.33;;
14139;SDS011;7150;53.514;9.988;2024-03-23T08:37:29;8.67;;;2.87;;
14139;SDS011;7150;53.514;9.988;2024-03-23T08:39:54;16.17;;;3.60;;
14139;SDS011;7150;53.514;9.988;2024-03-23T08:42:19;12.33;;;2.97;;
14139;SDS011;7150;53.514;9.988;2024-03-23T08:44:46;10.43;;;2.97;;
14139;SDS011;7150;53.514;9.988;2024-03-23T08:47:14;12.27;;;3.20;;
14139;SDS011;7150;53.514;9.988;2024-03-23T08:49:40;13.10;;;2.83;;
14139;SDS011;7150;53.514;9.988;2024-03-23T08:52:06;9.43;;;2.83;;
14139;SDS011;7150;53.514;9.988;2024-03-23T08:54:32;13.17;;;3.17;;
14139;SDS011;7150;53.514;9.988;2024-03-23T08:56:57;11.43;;;2.83;;
14139;SDS011;7150;53.514;9.988;2024-03-23T08:59:23;11.20;;;3.03;;
14139;SDS011;7150;53.514;9.988;2024-03-23T09:01:48;10.40;;;3.03;;
14139;SDS011;7150;53.514;9.988;2024-03-23T09:04:14;15.53;;;3.73;;
14139;SDS011;7150;53.514;9.988;2024-03-23T09:06:42;11.93;;;3.03;;
14139;SDS011;7150;53.514;9.988;2024-03-23T09:09:08;15.97;;;3.23;;
14139;SDS011;7150;53.514;9.988;2024-03-23T09:11:33;11.40;;;2.90;;
14139;SDS011;7150;53.514;9.988;2024-03-23T09:13:59;14.73;;;3.23;;
14139;SDS011;7150;53.514;9.988;2024-03-23T09:16:24;11.87;;;3.60;;
14139;SDS011;7150;53.514;9.988;2024-03-23T09:18:50;13.37;;;2.97;;
14139;SDS011;7150;53.514;9.988;2024-03-23T09:21:17;10.23;;;2.43;;
14139;SDS011;7150;53.514;9.988;2024-03-23T09:23:45;6.87;;;2.20;;
14139;SDS011;7150;53.514;9.988;2024-03-23T09:26:11;12.90;;;3.03;;
14139;SDS011;7150;53.514;9.988;2024-03-23T09:28:37;11.40;;;3.10;;
14139;SDS011;7150;53.514;9.988;2024-03-23T09:31:06;10.47;;;2.20;;
14139;SDS011;7150;53.514;9.988;2024-03-23T09:33:34;8.20;;;2.60;;
14139;SDS011;7150;53.514;9.988;2024-03-23T09:36:03;11.83;;;2.50;;
14139;SDS011;7150;53.514;9.988;2024-03-23T09:38:29;6.50;;;2.47;;
14139;SDS011;7150;53.514;9.988;2024-03-23T09:40:56;6.80;;;2.30;;
14139;SDS011;7150;53.514;9.988;2024-03-23T09:43:22;6.83;;;2.00;;
14139;SDS011;7150;53.514;9.988;2024-03-23T09:45:48;7.90;;;3.00;;
14139;SDS011;7150;53.514;9.988;2024-03-23T09:48:14;10.23;;;2.40;;
14139;SDS011;7150;53.514;9.988;2024-03-23T09:50:41;7.30;;;2.60;;
14139;SDS011;7150;53.514;9.988;2024-03-23T09:53:08;5.90;;;1.90;;
14139;SDS011;7150;53.514;9.988;2024-03-23T09:55:35;9.90;;;2.73;;
14139;SDS011;7150;53.514;9.988;2024-03-23T09:58:01;8.57;;;2.37;;
14139;SDS011;7150;53.514;9.988;2024-03-23T10:00:27;9.87;;;2.33;;
14139;SDS011;7150;53.514;9.988;2024-03-23T10:02:54;9.87;;;2.50;;
14139;SDS011;7150;53.514;9.988;2024-03-23T10:05:21;10.93;;;2.60;;
14139;SDS011;7150;53.514;9.988;2024-03-23T10:07:48;9.40;;;2.77;;
14139;SDS011;7150;53.514;9.988;2024-03-23T10:10:15;8.00;;;2.40;;
14139;SDS011;7150;53.514;9.988;2024-03-23T10:12:48;8.50;;;2.43;;
14139;SDS011;7150;53.514;9.988;2024-03-23T10:15:20;6.97;;;2.33;;
14139;SDS011;7150;53.514;9.988;2024-03-23T10:17:47;4.40;;;2.00;;
14139;SDS011;7150;53.514;9.988;2024-03-23T10:20:13;7.43;;;2.13;;
14139;SDS011;7150;53.514;9.988;2024-03-23T10:22:44;7.30;;;2.10;;
14139;SDS011;7150;53.514;9.988;2024-03-23T10:25:10;10.27;;;1.97;;
14139;SDS011;7150;53.514;9.988;2024-03-23T10:27:36;7.67;;;2.50;;
14139;SDS011;7150;53.514;9.988;2024-03-23T10:30:08;6.43;;;1.80;;
14139;SDS011;7150;53.514;9.988;2024-03-23T10:32:35;6.43;;;1.77;;
14139;SDS011;7150;53.514;9.988;2024-03-23T10:35:14;7.07;;;1.73;;
14139;SDS011;7150;53.514;9.988;2024-03-23T10:37:40;7.10;;;1.83;;
14139;SDS011;7150;53.514;9.988;2024-03-23T10:40:06;4.87;;;2.00;;
14139;SDS011;7150;53.514;9.988;2024-03-23T10:42:34;7.37;;;2.00;;
14139;SDS011;7150;53.514;9.988;2024-03-23T10:45:00;8.30;;;2.03;;
14139;SDS011;7150;53.514;9.988;2024-03-23T10:47:25;5.50;;;2.20;;
14139;SDS011;7150;53.514;9.988;2024-03-23T10:49:51;5.47;;;1.60;;
14139;SDS011;7150;53.514;9.988;2024-03-23T10:52:16;3.67;;;1.63;;
14139;SDS011;7150;53.514;9.988;2024-03-23T10:54:42;4.17;;;1.73;;
14139;SDS011;7150;53.514;9.988;2024-03-23T10:57:13;5.10;;;1.93;;
14139;SDS011;7150;53.514;9.988;2024-03-23T10:59:42;2.60;;;1.90;;
14139;SDS011;7150;53.514;9.988;2024-03-23T11:02:18;6.67;;;1.90;;
14139;SDS011;7150;53.514;9.988;2024-03-23T11:04:44;3.60;;;1.50;;
14139;SDS011;7150;53.514;9.988;2024-03-23T11:09:53;4.97;;;1.80;;
14139;SDS011;7150;53.514;9.988;2024-03-23T11:14:51;6.23;;;1.60;;
14139;SDS011;7150;53.514;9.988;2024-03-23T11:17:39;5.07;;;1.30;;
14139;SDS011;7150;53.514;9.988;2024-03-23T11:20:06;6.50;;;1.70;;
14139;SDS011;7150;53.514;9.988;2024-03-23T11:22:44;5.03;;;2.17;;
14139;SDS011;7150;53.514;9.988;2024-03-23T11:25:21;7.30;;;1.73;;
14139;SDS011;7150;53.514;9.988;2024-03-23T11:27:49;4.97;;;1.50;;
14139;SDS011;7150;53.514;9.988;2024-03-23T11:32:44;5.67;;;1.50;;
14139;SDS011;7150;53.514;9.988;2024-03-23T11:35:10;5.17;;;2.17;;
14139;SDS011;7150;53.514;9.988;2024-03-23T11:38:00;5.50;;;1.80;;
14139;SDS011;7150;53.514;9.988;2024-03-23T11:40:27;6.10;;;2.00;;
14139;SDS011;7150;53.514;9.988;2024-03-23T11:42:56;3.03;;;1.40;;
14139;SDS011;7150;53.514;9.988;2024-03-23T11:45:25;6.20;;;1.70;;
14139;SDS011;7150;53.514;9.988;2024-03-23T11:48:06;7.43;;;2.83;;
14139;SDS011;7150;53.514;9.988;2024-03-23T11:50:34;5.97;;;1.73;;
14139;SDS011;7150;53.514;9.988;2024-03-23T11:53:06;6.23;;;1.60;;
14139;SDS011;7150;53.514;9.988;2024-03-23T11:55:51;5.90;;;1.70;;
14139;SDS011;7150;53.514;9.988;2024-03-23T11:58:22;7.47;;;1.53;;
14139;SDS011;7150;53.514;9.988;2024-03-23T12:00:49;4.00;;;1.67;;
14139;SDS011;7150;53.514;9.988;2024-03-23T12:03:21;4.63;;;1.90;;
14139;SDS011;7150;53.514;9.988;2024-03-23T12:05:50;5.07;;;1.90;;
14139;SDS011;7150;53.514;9.988;2024-03-23T12:08:22;7.40;;;2.03;;
14139;SDS011;7150;53.514;9.988;2024-03-23T12:11:16;6.47;;;1.47;;
14139;SDS011;7150;53.514;9.988;2024-03-23T12:13:43;3.73;;;0.87;;
14139;SDS011;7150;53.514;9.988;2024-03-23T12:18:40;2.67;;;1.10;;
14139;SDS011;7150;53.514;9.988;2024-03-23T12:21:06;2.73;;;1.20;;
14139;SDS011;7150;53.514;9.988;2024-03-23T12:23:32;1.00;;;0.87;;
14139;SDS011;7150;53.514;9.988;2024-03-23T12:25:58;2.70;;;1.37;;
14139;SDS011;7150;53.514;9.988;2024-03-23T12:28:24;2.60;;;1.10;;
14139;SDS011;7150;53.514;9.988;2024-03-23T12:30:50;1.97;;;1.10;;
14139;SDS011;7150;53.514;9.988;2024-03-23T12:33:17;1.90;;;1.00;;
14139;SDS011;7150;53.514;9.988;2024-03-23T12:35:42;2.77;;;0.90;;
14139;SDS011;7150;53.514;9.988;2024-03-23T12:38:08;3.33;;;1.37;;
14139;SDS011;7150;53.514;9.988;2024-03-23T12:40:33;2.30;;;1.00;;
14139;SDS011;7150;53.514;9.988;2024-03-23T12:42:59;2.10;;;1.07;;
14139;SDS011;7150;53.514;9.988;2024-03-23T12:45:24;2.30;;;1.10;;
14139;SDS011;7150;53.514;9.988;2024-03-23T12:47:50;3.03;;;1.20;;
14139;SDS011;7150;53.514;9.988;2024-03-23T12:50:18;2.43;;;1.00;;
14139;SDS011;7150;53.514;9.988;2024-03-23T12:52:44;2.30;;;0.90;;
14139;SDS011;7150;53.514;9.988;2024-03-23T12:55:09;1.10;;;0.60;;
14139;SDS011;7150;53.514;9.988;2024-03-23T12:57:35;2.83;;;1.00;;
14139;SDS011;7150;53.514;9.988;2024-03-23T13:00:01;3.30;;;1.10;;
14139;SDS011;7150;53.514;9.988;2024-03-23T13:02:28;2.87;;;1.10;;
14139;SDS011;7150;53.514;9.988;2024-03-23T13:04:53;2.27;;;0.90;;
14139;SDS011;7150;53.514;9.988;2024-03-23T13:07:20;4.43;;;0.90;;
14139;SDS011;7150;53.514;9.988;2024-03-23T13:09:46;1.67;;;1.00;;
14139;SDS011;7150;53.514;9.988;2024-03-23T13:12:14;3.43;;;1.50;;
14139;SDS011;7150;53.514;9.988;2024-03-23T13:14:40;4.47;;;1.30;;
14139;SDS011;7150;53.514;9.988;2024-03-23T13:17:05;2.80;;;1.20;;
14139;SDS011;7150;53.514;9.988;2024-03-23T13:19:31;5.17;;;1.30;;
14139;SDS011;7150;53.514;9.988;2024-03-23T13:21:58;4.20;;;1.20;;
14139;SDS011;7150;53.514;9.988;2024-03-23T13:24:24;2.40;;;1.20;;
14139;SDS011;7150;53.514;9.988;2024-03-23T13:26:51;2.83;;;1.10;;
14139;SDS011;7150;53.514;9.988;2024-03-23T13:29:17;2.60;;;1.20;;
14139;SDS011;7150;53.514;9.988;2024-03-23T13:31:47;2.63;;;1.00;;
14139;SDS011;7150;53.514;9.988;2024-03-23T13:34:13;6.23;;;1.17;;
14139;SDS011;7150;53.514;9.988;2024-03-23T13:36:42;2.30;;;1.17;;
14139;SDS011;7150;53.514;9.988;2024-03-23T13:39:11;1.83;;;1.20;;
14139;SDS011;7150;53.514;9.988;2024-03-23T13:41:41;3.27;;;1.10;;
14139;SDS011;7150;53.514;9.988;2024-03-23T13:44:08;2.70;;;1.00;;
14139;SDS011;7150;53.514;9.988;2024-03-23T13:46:41;1.53;;;0.90;;
14139;SDS011;7150;53.514;9.988;2024-03-23T13:49:20;2.67;;;1.00;;
14139;SDS011;7150;53.514;9.988;2024-03-23T13:51:51;1.90;;;0.80;;
14139;SDS011;7150;53.514;9.988;2024-03-23T13:54:17;4.40;;;1.40;;
14139;SDS011;7150;53.514;9.988;2024-03-23T13:56:43;1.63;;;0.67;;
14139;SDS011;7150;53.514;9.988;2024-03-23T13:59:09;3.50;;;1.00;;
14139;SDS011;7150;53.514;9.988;2024-03-23T14:01:35;1.90;;;0.90;;
14139;SDS011;7150;53.514;9.988;2024-03-23T14:04:00;2.20;;;0.90;;
14139;SDS011;7150;53.514;9.988;2024-03-23T14:06:26;2.07;;;0.80;;
14139;SDS011;7150;53.514;9.988;2024-03-23T14:08:51;2.83;;;0.80;;
14139;SDS011;7150;53.514;9.988;2024-03-23T14:11:18;1.43;;;0.60;;
14139;SDS011;7150;53.514;9.988;2024-03-23T14:13:43;1.30;;;0.70;;
14139;SDS011;7150;53.514;9.988;2024-03-23T14:16:09;2.00;;;1.00;;
14139;SDS011;7150;53.514;9.988;2024-03-23T14:18:35;1.43;;;1.07;;
14139;SDS011;7150;53.514;9.988;2024-03-23T14:21:00;2.37;;;0.80;;
14139;SDS011;7150;53.514;9.988;2024-03-23T14:23:26;3.67;;;1.10;;
14139;SDS011;7150;53.514;9.988;2024-03-23T14:25:54;3.70;;;1.30;;
14139;SDS011;7150;53.514;9.988;2024-03-23T14:28:21;4.03;;;1.00;;
14139;SDS011;7150;53.514;9.988;2024-03-23T14:30:47;3.87;;;1.40;;
14139;SDS011;7150;53.514;9.988;2024-03-23T14:33:14;2.37;;;1.33;;
14139;SDS011;7150;53.514;9.988;2024-03-23T14:35:40;6.07;;;1.40;;
14139;SDS011;7150;53.514;9.988;2024-03-23T14:38:06;3.97;;;1.27;;
14139;SDS011;7150;53.514;9.988;2024-03-23T14:40:31;3.10;;;1.03;;
14139;SDS011;7150;53.514;9.988;2024-03-23T14:42:57;3.40;;;1.33;;
14139;SDS011;7150;53.514;9.988;2024-03-23T14:45:22;5.57;;;2.00;;
14139;SDS011;7150;53.514;9.988;2024-03-23T14:47:49;3.20;;;1.20;;
14139;SDS011;7150;53.514;9.988;2024-03-23T14:50:18;2.67;;;1.30;;
14139;SDS011;7150;53.514;9.988;2024-03-23T14:52:44;2.63;;;1.20;;
14139;SDS011;7150;53.514;9.988;2024-03-23T14:55:10;3.23;;;1.20;;
14139;SDS011;7150;53.514;9.988;2024-03-23T14:57:36;3.70;;;1.10;;
14139;SDS011;7150;53.514;9.988;2024-03-23T15:00:02;4.23;;;1.37;;
14139;SDS011;7150;53.514;9.988;2024-03-23T15:02:30;3.63;;;1.10;;
14139;SDS011;7150;53.514;9.988;2024-03-23T15:04:56;3.40;;;1.43;;
14139;SDS011;7150;53.514;9.988;2024-03-23T15:07:22;1.60;;;1.10;;
14139;SDS011;7150;53.514;9.988;2024-03-23T15:09:48;2.97;;;1.30;;
14139;SDS011;7150;53.514;9.988;2024-03-23T15:12:13;1.37;;;0.90;;
14139;SDS011;7150;53.514;9.988;2024-03-23T15:14:39;1.80;;;1.27;;
14139;SDS011;7150;53.514;9.988;2024-03-23T15:17:04;2.57;;;1.23;;
14139;SDS011;7150;53.514;9.988;2024-03-23T15:19:32;2.50;;;0.90;;
14139;SDS011;7150;53.514;9.988;2024-03-23T15:21:58;1.00;;;0.87;;
14139;SDS011;7150;53.514;9.988;2024-03-23T15:24:23;3.13;;;0.90;;
14139;SDS011;7150;53.514;9.988;2024-03-23T15:26:49;0.90;;;0.70;;
14139;SDS011;7150;53.514;9.988;2024-03-23T15:29:17;0.97;;;0.70;;
14139;SDS011;7150;53.514;9.988;2024-03-23T15:31:42;0.83;;;0.63;;
14139;SDS011;7150;53.514;9.988;2024-03-23T15:34:08;1.30;;;0.80;;
14139;SDS011;7150;53.514;9.988;2024-03-23T15:36:37;1.33;;;0.93;;
14139;SDS011;7150;53.514;9.988;2024-03-23T15:39:06;1.23;;;0.80;;
14139;SDS011;7150;53.514;9.988;2024-03-23T15:41:31;1.00;;;0.90;;
14139;SDS011;7150;53.514;9.988;2024-03-23T15:43:59;1.63;;;1.00;;
14139;SDS011;7150;53.514;9.988;2024-03-23T15:46:24;1.87;;;1.03;;
14139;SDS011;7150;53.514;9.988;2024-03-23T15:48:50;2.20;;;1.00;;
14139;SDS011;7150;53.514;9.988;2024-03-23T15:51:15;2.77;;;1.03;;
14139;SDS011;7150;53.514;9.988;2024-03-23T15:53:43;2.00;;;0.80;;
14139;SDS011;7150;53.514;9.988;2024-03-23T15:56:08;2.27;;;1.00;;
14139;SDS011;7150;53.514;9.988;2024-03-23T15:58:34;1.60;;;1.00;;